Time;durP1;ratioP1;P1;durP2;ratioP2;P2;SDS_P1;SDS_P2;PMS_P1;PMS_P2;Temp;Humidity;BMP_temperature;BMP_pressure;BME280_temperature;BME280_humidity;BME280_pressure;Samples;Min_cycle;Max_cycle;Signal;HPM_P1;HPM_P2
2023/01/15 00:02:08;;;;;;;0.30;0.20;;;;;;;8.19;100.00;95660.47;5072273;28;20515;-58
2023/01/15 00:04:36;;;;;;;0.60;0.60;;;;;;;7.54;100.00;95642.69;5072312;28;20444;-58
2023/01/15 00:07:05;;;;;;;4.93;1.73;;;;;;;7.62;100.00;95665.22;5072666;28;20422;-59
2023/01/15 00:09:34;;;;;;;0.70;0.70;;;;;;;7.35;100.00;95664.28;5072275;28;20581;-59
2023/01/15 00:12:03;;;;;;;0.30;0.30;;;;;;;7.56;100.00;95664.34;5072245;28;20428;-59
2023/01/15 00:14:31;;;;;;;0.60;0.60;;;;;;;7.79;100.00;95670.50;5072367;28;20817;-59
2023/01/15 00:17:00;;;;;;;0.30;0.27;;;;;;;7.85;100.00;95667.69;5072365;28;20444;-59
2023/01/15 00:19:28;;;;;;;0.50;0.50;;;;;;;8.00;100.00;95661.78;5072480;28;20428;-59
2023/01/15 00:21:57;;;;;;;0.93;0.50;;;;;;;7.81;100.00;95648.09;5072280;28;20429;-59
2023/01/15 00:29:58;;;;;;;0.40;0.30;;;;;;;7.71;100.00;95655.06;5071191;28;20555;-59
2023/01/15 00:32:28;;;;;;;0.70;0.63;;;;;;;7.91;100.00;95661.44;5071529;28;20520;-58
2023/01/15 00:34:58;;;;;;;1.17;0.63;;;;;;;7.90;100.00;95636.06;5071801;28;20435;-59
2023/01/15 00:37:26;;;;;;;0.40;0.30;;;;;;;8.06;100.00;95658.19;5071876;28;20527;-59
2023/01/15 00:39:54;;;;;;;0.63;0.60;;;;;;;8.14;100.00;95658.56;5071961;28;20981;-59
2023/01/15 00:42:24;;;;;;;0.50;0.50;;;;;;;8.05;100.00;95649.47;5072033;28;20499;-59
2023/01/15 00:44:52;;;;;;;0.30;0.20;;;;;;;7.95;100.00;95657.25;5071685;28;20428;-59
2023/01/15 00:47:21;;;;;;;0.50;0.40;;;;;;;7.84;100.00;95652.91;5071416;28;20430;-59
2023/01/15 00:49:50;;;;;;;0.50;0.50;;;;;;;7.98;100.00;95648.84;5071442;28;20575;-59
2023/01/15 00:52:18;;;;;;;1.03;1.03;;;;;;;7.94;100.00;95653.03;5071981;28;20852;-59
2023/01/15 00:54:47;;;;;;;0.57;0.57;;;;;;;8.03;100.00;95650.75;5071842;28;20450;-59
2023/01/15 00:57:15;;;;;;;0.63;0.40;;;;;;;7.98;100.00;95655.97;5070856;28;20437;-59
2023/01/15 00:59:45;;;;;;;0.60;0.40;;;;;;;8.04;100.00;95655.81;5071301;28;20419;-59
2023/01/15 01:02:13;;;;;;;0.30;0.20;;;;;;;8.16;100.00;95653.84;5071658;28;20429;-59
2023/01/15 01:04:41;;;;;;;0.30;0.30;;;;;;;8.19;100.00;95650.72;5071582;28;20942;-58
2023/01/15 01:07:10;;;;;;;0.40;0.30;;;;;;;8.18;100.00;95648.31;5071592;28;20461;-58
2023/01/15 01:09:38;;;;;;;0.50;0.50;;;;;;;8.18;100.00;95653.59;5071821;28;20505;-59
2023/01/15 01:12:07;;;;;;;0.37;0.30;;;;;;;7.78;100.00;95603.72;5071429;28;20503;-58
2023/01/15 01:14:37;;;;;;;1.03;0.60;;;;;;;7.80;100.00;95624.59;5071472;28;20859;-59
2023/01/15 01:17:07;;;;;;;0.30;0.20;;;;;;;8.09;100.00;95681.47;5071512;28;20451;-59
2023/01/15 01:19:36;;;;;;;0.40;0.30;;;;;;;8.22;100.00;95654.72;5071558;28;20426;-59
2023/01/15 01:22:05;;;;;;;0.50;0.30;;;;;;;8.30;100.00;95649.00;5070654;28;20883;-59
2023/01/15 01:24:33;;;;;;;0.60;0.60;;;;;;;8.22;100.00;95652.06;5071429;28;20512;-58
2023/01/15 01:27:01;;;;;;;1.70;1.60;;;;;;;8.14;100.00;95650.66;5071301;28;20455;-58
2023/01/15 01:29:30;;;;;;;1.23;0.30;;;;;;;8.18;100.00;95648.31;5071674;28;20495;-59
2023/01/15 01:31:58;;;;;;;0.70;0.70;;;;;;;8.23;100.00;95645.72;5071030;28;20473;-58
2023/01/15 01:34:28;;;;;;;2.40;0.80;;;;;;;8.38;100.00;95643.28;5071419;28;20837;-58
2023/01/15 01:36:56;;;;;;;0.60;0.60;;;;;;;8.12;100.00;95650.06;5071095;28;20570;-58
2023/01/15 01:39:24;;;;;;;0.80;0.70;;;;;;;8.19;100.00;95653.34;5071232;28;20471;-59
2023/01/15 01:41:53;;;;;;;0.50;0.43;;;;;;;8.19;100.00;95649.91;5071341;28;20465;-58
2023/01/15 01:44:59;;;;;;;0.30;0.20;;;;;;;8.14;100.00;95650.66;5071152;28;20462;-58
2023/01/15 01:47:32;;;;;;;0.40;0.30;;;;;;;8.15;100.00;95654.06;5070449;28;20559;-58
2023/01/15 01:50:05;;;;;;;0.50;0.30;;;;;;;8.06;100.00;95645.78;5069904;28;20468;-58
2023/01/15 01:52:39;;;;;;;0.30;0.20;;;;;;;8.11;100.00;95650.34;5070274;28;20538;-59
2023/01/15 01:55:09;;;;;;;0.40;0.30;;;;;;;7.74;100.00;95586.81;5070483;28;20816;-59
2023/01/15 01:57:39;;;;;;;0.50;0.40;;;;;;;8.13;100.00;95635.84;5072792;28;20435;-59
2023/01/15 02:00:10;;;;;;;4.40;0.40;;;;;;;7.65;100.00;95560.03;5074935;28;20430;-60
2023/01/15 02:02:39;;;;;;;0.40;0.30;;;;;;;7.88;100.00;95622.34;5074673;28;20505;-60
2023/01/15 02:05:12;;;;;;;0.60;0.60;;;;;;;7.57;100.00;95599.22;5074545;28;20460;-60
2023/01/15 02:07:41;;;;;;;0.57;0.57;;;;;;;7.67;100.00;95623.91;5075058;28;20437;-60
2023/01/15 02:10:14;;;;;;;0.30;0.20;;;;;;;7.86;100.00;95631.53;5074430;28;20460;-60
2023/01/15 02:12:49;;;;;;;0.80;0.80;;;;;;;7.72;100.00;95632.91;5074565;28;20504;-60
2023/01/15 02:15:22;;;;;;;1.20;1.20;;;;;;;7.73;100.00;95634.53;5074481;28;20446;-60
2023/01/15 02:18:00;;;;;;;0.30;0.20;;;;;;;7.89;100.00;95628.41;5074417;28;20429;-60
2023/01/15 02:20:36;;;;;;;0.40;0.40;;;;;;;7.88;100.00;95626.81;5074485;28;20443;-59
2023/01/15 02:23:46;;;;;;;0.60;0.60;;;;;;;7.91;100.00;95623.69;5074296;28;20439;-60
2023/01/15 02:26:38;;;;;;;0.80;0.50;;;;;;;7.89;100.00;95616.03;5074484;28;20967;-59
2023/01/15 02:29:11;;;;;;;0.33;0.27;;;;;;;7.99;100.00;95620.63;5074331;28;20525;-59
2023/01/15 02:31:43;;;;;;;0.50;0.40;;;;;;;7.95;100.00;95627.41;5074021;28;21056;-60
2023/01/15 02:34:17;;;;;;;1.07;0.40;;;;;;;7.90;100.00;95630.00;5074006;28;20451;-59
2023/01/15 02:36:51;;;;;;;0.50;0.50;;;;;;;7.74;100.00;95620.31;5073692;28;20494;-59
2023/01/15 02:39:21;;;;;;;0.50;0.50;;;;;;;7.56;100.00;95635.34;5073349;28;20441;-59
2023/01/15 02:41:54;;;;;;;0.70;0.70;;;;;;;6.93;100.00;95577.72;5073500;28;20473;-59
2023/01/15 02:44:27;;;;;;;0.37;0.27;;;;;;;7.46;100.00;95634.41;5073901;28;20437;-58
2023/01/15 02:46:56;;;;;;;0.80;0.80;;;;;;;7.67;100.00;95628.38;5073934;28;20795;-59
2023/01/15 02:49:25;;;;;;;0.40;0.20;;;;;;;7.54;100.00;95568.84;5073406;28;20482;-59
2023/01/15 02:52:01;;;;;;;0.50;0.50;;;;;;;7.36;100.00;95555.94;5072595;28;21006;-58
2023/01/15 02:54:34;;;;;;;1.33;1.23;;;;;;;7.61;100.00;95601.13;5073679;28;20466;-59
2023/01/15 02:57:05;;;;;;;0.73;0.60;;;;;;;7.79;100.00;95623.00;5073593;28;20439;-58
2023/01/15 02:59:38;;;;;;;0.40;0.40;;;;;;;7.66;100.00;95579.31;5073337;28;20505;-58
2023/01/15 03:02:10;;;;;;;0.47;0.47;;;;;;;7.81;100.00;95627.00;5072924;28;20479;-58
2023/01/15 03:04:44;;;;;;;0.50;0.40;;;;;;;7.81;100.00;95623.56;5072537;28;20426;-58
2023/01/15 03:07:17;;;;;;;0.43;0.33;;;;;;;7.73;100.00;95587.03;5073625;28;20436;-59
2023/01/15 03:09:47;;;;;;;0.40;0.40;;;;;;;8.04;100.00;95636.53;5072474;28;20424;-58
2023/01/15 03:12:23;;;;;;;0.30;0.30;;;;;;;8.04;100.00;95641.81;5073351;28;20501;-57
2023/01/15 03:15:01;;;;;;;0.73;0.73;;;;;;;7.76;100.00;95641.94;5073664;28;20504;-60
2023/01/15 03:17:36;;;;;;;0.57;0.57;;;;;;;7.58;100.00;95643.84;5073741;28;20505;-60
2023/01/15 03:20:12;;;;;;;0.37;0.27;;;;;;;7.79;100.00;95642.28;5073033;28;20519;-58
2023/01/15 03:22:46;;;;;;;0.83;0.83;;;;;;;7.65;100.00;95643.66;5072896;28;20467;-58
2023/01/15 03:25:19;;;;;;;0.70;0.60;;;;;;;7.43;100.00;95614.59;5072244;28;20816;-58
2023/01/15 03:27:50;;;;;;;1.37;0.60;;;;;;;7.56;100.00;95650.38;5072675;28;20484;-59
2023/01/15 03:30:21;;;;;;;0.47;0.40;;;;;;;7.23;100.00;95656.47;5072562;28;20428;-58
2023/01/15 03:32:49;;;;;;;0.60;0.50;;;;;;;7.37;100.00;95656.94;5072218;28;20475;-59
2023/01/15 03:35:46;;;;;;;0.40;0.30;;;;;;;7.16;100.00;95649.78;5072319;28;20526;-58
2023/01/15 03:38:17;;;;;;;2.90;1.00;;;;;;;7.37;100.00;95651.66;5067247;28;20447;-58
2023/01/15 03:40:53;;;;;;;1.10;1.10;;;;;;;6.97;100.00;95604.38;5072262;28;20958;-58
2023/01/15 03:43:42;;;;;;;0.70;0.50;;;;;;;7.57;100.00;95651.97;5072189;28;20906;-58
2023/01/15 03:46:26;;;;;;;0.50;0.40;;;;;;;7.66;100.00;95640.75;5072371;28;20794;-58
2023/01/15 03:49:02;;;;;;;0.87;0.87;;;;;;;7.77;100.00;95649.63;5072399;28;20513;-59
2023/01/15 03:51:35;;;;;;;0.87;0.87;;;;;;;7.88;100.00;95654.00;5071861;28;20431;-58
2023/01/15 03:54:09;;;;;;;3.23;1.07;;;;;;;7.75;100.00;95640.34;5072052;28;20429;-59
2023/01/15 03:56:49;;;;;;;0.53;0.40;;;;;;;7.63;100.00;95649.19;5072018;28;20416;-58
2023/01/15 03:59:23;;;;;;;0.30;0.30;;;;;;;7.42;100.00;95649.91;5072141;28;20983;-59
2023/01/15 04:01:53;;;;;;;0.60;0.57;;;;;;;7.37;100.00;95649.03;5072510;28;20512;-58
2023/01/15 04:04:23;;;;;;;0.53;0.53;;;;;;;7.62;100.00;95650.22;5072451;28;20427;-59
2023/01/15 04:06:53;;;;;;;8.63;0.60;;;;;;;7.77;100.00;95654.88;5072049;28;20471;-58
2023/01/15 04:09:22;;;;;;;0.43;0.40;;;;;;;7.32;100.00;95612.84;5072206;28;20422;-59
2023/01/15 04:11:51;;;;;;;6.20;2.30;;;;;;;7.79;100.00;95650.19;5071963;28;20563;-59
2023/01/15 04:14:20;;;;;;;1.40;0.63;;;;;;;7.43;100.00;95617.25;5071823;28;20600;-59
2023/01/15 04:16:49;;;;;;;1.07;1.07;;;;;;;7.78;100.00;95653.06;5071664;28;20440;-59
2023/01/15 04:19:17;;;;;;;1.03;1.03;;;;;;;7.53;100.00;95614.75;5071415;28;20464;-59
2023/01/15 04:21:45;;;;;;;0.60;0.60;;;;;;;7.86;100.00;95652.66;5071559;28;20431;-59
2023/01/15 04:24:14;;;;;;;0.83;0.83;;;;;;;7.95;100.00;95651.16;5071817;28;20433;-59
2023/01/15 04:26:42;;;;;;;0.80;0.67;;;;;;;7.81;100.00;95658.66;5072403;28;20436;-58
2023/01/15 04:29:10;;;;;;;1.33;1.33;;;;;;;7.83;100.00;95643.38;5072312;28;20763;-58
2023/01/15 04:31:40;;;;;;;1.27;1.07;;;;;;;8.01;100.00;95658.13;5071679;28;20455;-58
2023/01/15 04:34:08;;;;;;;1.27;1.27;;;;;;;8.04;100.00;95658.44;5071236;28;20451;-59
2023/01/15 04:36:37;;;;;;;2.10;1.07;;;;;;;8.02;100.00;95657.88;5071274;28;20800;-58
2023/01/15 04:39:05;;;;;;;0.37;0.30;;;;;;;7.98;100.00;95666.53;5071031;28;20434;-58
2023/01/15 04:44:16;;;;;;;0.47;0.47;;;;;;;7.87;100.00;95662.94;5027332;28;20436;-58
2023/01/15 04:46:47;;;;;;;0.93;0.93;;;;;;;7.72;100.00;95640.81;5070734;28;20445;-58
2023/01/15 04:49:17;;;;;;;1.10;1.00;;;;;;;7.15;100.00;95619.16;5071273;28;20863;-58
2023/01/15 04:51:46;;;;;;;0.63;0.63;;;;;;;6.88;100.00;95632.97;5071269;28;20441;-58
2023/01/15 04:54:16;;;;;;;0.93;0.93;;;;;;;7.02;100.00;95668.53;5071358;28;20477;-59
2023/01/15 04:56:47;;;;;;;4.97;1.77;;;;;;;7.00;100.00;95670.59;5071297;28;20429;-59
2023/01/15 04:59:17;;;;;;;0.90;0.90;;;;;;;6.99;100.00;95679.53;5071262;28;20523;-59
2023/01/15 05:01:47;;;;;;;0.87;0.87;;;;;;;7.06;100.00;95681.22;5071178;28;20456;-59
2023/01/15 05:04:31;;;;;;;0.70;0.70;;;;;;;7.03;100.00;95677.22;5071487;28;20438;-59
2023/01/15 05:07:01;;;;;;;5.30;0.87;;;;;;;6.31;100.00;95579.56;5071419;28;20428;-59
2023/01/15 05:09:30;;;;;;;0.83;0.83;;;;;;;6.99;100.00;95668.19;5071120;28;20487;-60
2023/01/15 05:11:58;;;;;;;3.27;2.83;;;;;;;6.99;100.00;95673.47;5071000;28;20432;-60
2023/01/15 05:14:27;;;;;;;0.60;0.60;;;;;;;6.76;100.00;95676.22;5070733;28;20510;-60
2023/01/15 05:16:57;;;;;;;0.93;0.50;;;;;;;7.06;100.00;95670.69;5070914;28;20441;-60
2023/01/15 05:19:25;;;;;;;0.53;0.53;;;;;;;7.00;100.00;95681.16;5070831;28;20463;-60
2023/01/15 05:21:53;;;;;;;4.77;1.33;;;;;;;6.76;100.00;95681.47;5070870;28;20457;-60
2023/01/15 05:24:22;;;;;;;0.60;0.40;;;;;;;6.55;100.00;95688.22;5070845;28;20434;-59
2023/01/15 05:26:50;;;;;;;0.70;0.70;;;;;;;6.80;100.00;95682.63;5071396;28;20507;-59
2023/01/15 05:29:18;;;;;;;1.70;1.33;;;;;;;6.44;100.00;95693.50;5070709;28;20475;-59
2023/01/15 05:31:47;;;;;;;1.07;1.07;;;;;;;5.95;100.00;95700.94;5071825;28;21005;-59
2023/01/15 05:34:16;;;;;;;0.50;0.40;;;;;;;5.81;100.00;95681.16;5075402;28;20563;-59
2023/01/15 05:36:45;;;;;;;0.70;0.70;;;;;;;6.35;100.00;95696.50;5075699;28;20515;-59
2023/01/15 05:39:13;;;;;;;5.57;0.97;;;;;;;6.37;100.00;95694.44;5075415;28;20950;-60
2023/01/15 05:41:51;;;;;;;1.00;0.90;;;;;;;6.06;100.00;95628.28;5075595;28;20438;-60
2023/01/15 05:44:22;;;;;;;4.33;1.53;;;;;;;6.26;100.00;95705.00;5075687;28;20416;-58
2023/01/15 05:46:51;;;;;;;1.87;1.80;;;;;;;6.12;100.00;95680.78;5075001;28;20487;-59
2023/01/15 05:49:23;;;;;;;1.27;1.27;;;;;;;6.44;100.00;95711.94;5075191;28;20516;-59
2023/01/15 05:51:52;;;;;;;0.57;0.53;;;;;;;6.49;100.00;95706.78;5075415;28;20450;-60
2023/01/15 05:54:22;;;;;;;0.50;0.50;;;;;;;6.63;100.00;95708.13;5075393;28;20575;-59
2023/01/15 05:56:51;;;;;;;0.87;0.87;;;;;;;6.36;100.00;95631.50;5074764;28;20663;-59
2023/01/15 05:59:23;;;;;;;1.13;1.03;;;;;;;6.77;100.00;95704.16;5075030;28;20458;-60
2023/01/15 06:01:52;;;;;;;0.63;0.63;;;;;;;6.97;100.00;95709.78;5075033;28;20473;-59
2023/01/15 06:04:23;;;;;;;1.67;1.10;;;;;;;6.78;100.00;95703.91;5074857;28;20478;-59
2023/01/15 06:06:54;;;;;;;0.57;0.57;;;;;;;6.67;100.00;95703.97;5074592;28;20521;-59
2023/01/15 06:09:23;;;;;;;1.00;0.93;;;;;;;6.12;100.00;95630.78;5074618;28;20875;-59
2023/01/15 06:11:52;;;;;;;0.73;0.57;;;;;;;6.98;100.00;95704.28;5074315;28;20536;-59
2023/01/15 06:14:21;;;;;;;1.00;0.70;;;;;;;6.88;100.00;95711.22;5074647;28;20521;-59
2023/01/15 06:16:49;;;;;;;1.00;1.00;;;;;;;6.81;100.00;95700.81;5074487;28;20432;-59
2023/01/15 06:19:18;;;;;;;0.67;0.67;;;;;;;5.81;100.00;95661.94;5074812;28;20424;-59
2023/01/15 06:21:47;;;;;;;1.50;1.43;;;;;;;5.65;100.00;95710.75;5074887;28;20869;-59
2023/01/15 06:24:16;;;;;;;0.60;0.60;;;;;;;5.83;100.00;95713.28;5074539;28;20426;-59
2023/01/15 06:26:45;;;;;;;0.77;0.77;;;;;;;6.29;100.00;95713.25;5074392;28;20788;-59
2023/01/15 06:29:17;;;;;;;4.50;1.03;;;;;;;6.00;100.00;95637.91;5074498;28;20511;-59
2023/01/15 06:31:46;;;;;;;1.43;1.43;;;;;;;5.91;100.00;95723.47;5074502;28;20824;-59
2023/01/15 06:34:15;;;;;;;0.67;0.67;;;;;;;5.40;100.00;95726.75;5074152;28;20492;-59
2023/01/15 06:36:43;;;;;;;0.73;0.73;;;;;;;5.51;100.00;95720.72;5074551;28;20418;-59
2023/01/15 06:39:13;;;;;;;2.20;0.50;;;;;;;6.02;100.00;95709.50;5073860;28;20499;-59
2023/01/15 06:47:22;;;;;;;5.70;1.03;;;;;;;5.76;100.00;95723.13;5074319;28;20440;-60
2023/01/15 06:49:53;;;;;;;1.00;1.00;;;;;;;5.14;100.00;95651.75;5073859;28;20482;-60
2023/01/15 06:52:22;;;;;;;2.10;0.80;;;;;;;6.00;100.00;95734.44;5073936;28;20458;-60
2023/01/15 06:54:52;;;;;;;0.43;0.40;;;;;;;5.60;100.00;95685.16;5074032;28;20498;-60
2023/01/15 06:57:21;;;;;;;0.50;0.50;;;;;;;5.99;100.00;95711.81;5074104;28;20476;-59
2023/01/15 06:59:50;;;;;;;0.60;0.60;;;;;;;6.18;100.00;95735.13;5073839;28;20904;-59
2023/01/15 07:02:20;;;;;;;0.77;0.50;;;;;;;6.25;100.00;95741.06;5073756;28;20435;-59
2023/01/15 07:04:49;;;;;;;0.57;0.40;;;;;;;6.40;100.00;95737.94;5073961;28;20593;-59
2023/01/15 07:07:19;;;;;;;0.50;0.50;;;;;;;6.52;100.00;95743.19;5073261;28;20977;-59
2023/01/15 07:09:47;;;;;;;2.40;2.30;;;;;;;6.22;100.00;95741.50;5073684;28;20462;-59
2023/01/15 07:12:17;;;;;;;0.50;0.50;;;;;;;6.28;100.00;95742.41;5073464;28;20424;-58
2023/01/15 07:14:45;;;;;;;0.80;0.80;;;;;;;6.14;100.00;95717.41;5073178;28;20569;-57
2023/01/15 07:17:14;;;;;;;0.83;0.83;;;;;;;6.35;100.00;95736.00;5073317;28;20848;-58
2023/01/15 07:19:44;;;;;;;0.53;0.53;;;;;;;6.56;100.00;95747.75;5073574;28;20465;-58
2023/01/15 07:22:13;;;;;;;2.13;2.03;;;;;;;6.32;100.00;95746.22;5073333;28;20435;-59
2023/01/15 07:24:41;;;;;;;0.47;0.47;;;;;;;6.72;100.00;95746.22;5072813;28;20488;-58
2023/01/15 07:27:10;;;;;;;0.40;0.30;;;;;;;7.21;100.00;95715.75;5073277;28;20879;-58
2023/01/15 07:29:40;;;;;;;1.43;1.43;;;;;;;6.78;100.00;95737.38;5073331;28;21000;-59
2023/01/15 07:32:08;;;;;;;0.50;0.40;;;;;;;6.82;100.00;95743.78;5071311;28;20479;-59
2023/01/15 07:34:36;;;;;;;5.27;0.80;;;;;;;7.00;100.00;95740.94;5070702;28;20858;-59
2023/01/15 07:37:05;;;;;;;2.03;1.93;;;;;;;7.29;100.00;95744.34;5071707;28;20432;-59
2023/01/15 07:39:33;;;;;;;1.53;1.30;;;;;;;6.94;100.00;95740.06;5071504;28;20518;-59
2023/01/15 07:50:23;;;;;;;1.27;1.20;;;;;;;7.32;100.00;95733.31;5072219;28;21010;-60
2023/01/15 07:52:52;;;;;;;1.50;1.37;;;;;;;7.54;100.00;95744.75;5072497;28;20460;-59
2023/01/15 07:55:21;;;;;;;2.07;2.00;;;;;;;7.51;100.00;95743.41;5071710;28;21000;-59
2023/01/15 07:57:50;;;;;;;4.23;1.67;;;;;;;8.11;100.00;95745.38;5072815;28;20452;-60
2023/01/15 08:00:23;;;;;;;2.43;2.33;;;;;;;7.47;100.00;95731.75;5072548;28;20426;-60
2023/01/15 08:02:52;;;;;;;4.33;1.17;;;;;;;7.97;100.00;95747.53;5072863;28;20481;-59
2023/01/15 08:05:21;;;;;;;1.33;1.23;;;;;;;8.10;100.00;95751.69;5072633;28;20430;-60
2023/01/15 08:07:49;;;;;;;4.83;4.57;;;;;;;7.70;100.00;95749.25;5072824;28;20453;-59
2023/01/15 08:10:18;;;;;;;15.47;4.23;;;;;;;7.83;100.00;95741.00;5072522;28;20456;-60
2023/01/15 08:15:41;;;;;;;14.77;4.50;;;;;;;8.92;99.89;95745.38;5072284;28;21177;-59
2023/01/15 08:18:09;;;;;;;3.60;3.40;;;;;;;9.56;93.41;95746.25;5072299;28;20417;-60
2023/01/15 08:20:38;;;;;;;10.03;7.00;;;;;;;9.20;92.18;95743.53;5072282;28;20488;-59
2023/01/15 08:23:06;;;;;;;4.03;3.83;;;;;;;10.02;90.96;95686.47;5072223;28;20497;-60
2023/01/15 08:25:34;;;;;;;4.73;2.67;;;;;;;11.28;86.63;95734.69;5072448;28;20854;-61
2023/01/15 08:28:03;;;;;;;30.77;5.23;;;;;;;11.85;78.78;95731.06;5072320;28;20428;-60
2023/01/15 08:30:32;;;;;;;16.20;8.43;;;;;;;12.12;75.99;95718.25;5072284;28;20431;-60
2023/01/15 08:33:02;;;;;;;13.73;7.93;;;;;;;12.13;74.54;95737.66;5071889;28;20451;-61
2023/01/15 08:35:33;;;;;;;16.47;8.00;;;;;;;11.62;74.20;95734.19;5072050;28;20474;-59
2023/01/15 08:38:04;;;;;;;26.53;4.93;;;;;;;12.02;73.94;95747.50;5071896;28;20853;-60
2023/01/15 08:40:34;;;;;;;12.93;5.83;;;;;;;11.04;74.81;95744.19;5072273;28;20857;-60
2023/01/15 08:43:02;;;;;;;15.97;2.03;;;;;;;10.73;76.91;95734.53;5071782;28;20437;-59
2023/01/15 08:45:31;;;;;;;41.03;3.93;;;;;;;10.40;77.57;95745.53;5071768;28;20424;-59
2023/01/15 08:47:59;;;;;;;10.10;6.00;;;;;;;9.41;80.71;95738.16;5071732;28;20434;-59
2023/01/15 08:50:29;;;;;;;3.30;2.60;;;;;;;8.96;84.97;95756.22;5071529;28;20511;-59
2023/01/15 08:52:57;;;;;;;5.77;3.57;;;;;;;8.73;89.56;95759.13;5071685;28;21022;-60
2023/01/15 08:55:25;;;;;;;3.80;1.43;;;;;;;8.73;88.72;95751.22;5071695;28;20467;-60
2023/01/15 08:57:54;;;;;;;1.80;1.80;;;;;;;8.34;92.09;95734.63;5071543;28;20431;-59
2023/01/15 09:00:23;;;;;;;2.43;1.07;;;;;;;8.66;91.19;95756.69;5071937;28;20844;-59
2023/01/15 09:02:51;;;;;;;1.70;0.93;;;;;;;8.41;93.69;95747.66;5071665;28;20441;-58
2023/01/15 09:05:20;;;;;;;2.40;0.80;;;;;;;8.47;94.46;95750.13;5071477;28;20518;-58
2023/01/15 09:07:49;;;;;;;0.50;0.50;;;;;;;8.85;91.05;95699.81;5070956;28;20451;-57
2023/01/15 09:10:18;;;;;;;0.40;0.33;;;;;;;8.90;90.50;95744.81;5071798;28;20872;-57
2023/01/15 09:12:46;;;;;;;0.90;0.90;;;;;;;8.63;92.48;95741.31;5071676;28;20494;-57
2023/01/15 09:15:15;;;;;;;2.13;2.03;;;;;;;7.87;94.53;95678.00;5071374;28;21041;-58
2023/01/15 09:17:43;;;;;;;2.30;2.20;;;;;;;8.20;97.53;95675.25;5071804;28;20436;-57
2023/01/15 09:20:13;;;;;;;0.50;0.50;;;;;;;9.02;94.13;95741.22;5071731;28;20526;-58
2023/01/15 09:22:42;;;;;;;0.60;0.60;;;;;;;8.48;93.76;95730.56;5071312;28;20910;-58
2023/01/15 09:25:11;;;;;;;1.90;1.37;;;;;;;8.34;98.88;95732.00;5071807;28;20813;-58
2023/01/15 09:27:40;;;;;;;0.40;0.40;;;;;;;8.27;100.00;95731.38;5071343;28;20428;-58
2023/01/15 09:30:10;;;;;;;0.50;0.50;;;;;;;8.65;100.00;95683.75;5071755;28;20445;-59
2023/01/15 09:32:39;;;;;;;0.60;0.60;;;;;;;8.68;95.28;95685.91;5071730;28;20505;-59
2023/01/15 09:35:08;;;;;;;1.23;1.23;;;;;;;9.31;93.25;95726.72;5071336;28;20470;-59
2023/01/15 09:37:36;;;;;;;1.40;1.30;;;;;;;8.93;93.96;95725.81;5071470;28;20446;-59
2023/01/15 09:40:08;;;;;;;4.07;1.90;;;;;;;8.46;97.68;95719.47;5071381;28;20461;-59
2023/01/15 09:42:48;;;;;;;2.83;0.83;;;;;;;8.91;99.11;95714.69;5071627;28;20436;-59
2023/01/15 09:45:25;;;;;;;2.57;1.50;;;;;;;8.94;97.79;95708.91;5071215;28;20464;-59
2023/01/15 09:48:10;;;;;;;4.40;1.33;;;;;;;8.06;100.00;95713.63;5071088;28;20941;-59
2023/01/15 09:50:53;;;;;;;1.30;0.73;;;;;;;7.82;100.00;95710.38;5070861;28;20509;-60
2023/01/15 09:53:36;;;;;;;1.10;1.10;;;;;;;8.90;100.00;95701.72;5071284;28;20437;-59
2023/01/15 09:56:05;;;;;;;1.60;0.50;;;;;;;9.04;98.22;95695.00;5070873;28;20480;-59
2023/01/15 09:58:37;;;;;;;7.77;1.70;;;;;;;9.44;96.16;95699.84;5070598;28;20515;-59
2023/01/15 10:01:05;;;;;;;2.10;1.33;;;;;;;9.67;91.67;95635.97;5070692;28;20429;-59
2023/01/15 10:03:41;;;;;;;1.20;1.07;;;;;;;9.70;91.18;95685.75;5071017;28;20433;-59
2023/01/15 10:06:15;;;;;;;10.57;0.90;;;;;;;9.36;94.02;95674.63;5070914;28;20425;-58
2023/01/15 10:08:46;;;;;;;0.90;0.90;;;;;;;9.45;96.83;95659.91;5071051;28;20480;-58
2023/01/15 10:12:34;;;;;;;7.60;1.23;;;;;;;9.47;94.29;95673.69;5070497;28;20966;-57
2023/01/15 10:14:37;;;;;;;3.30;0.50;;;;;;;9.57;96.96;95657.06;5070252;28;20450;-58
2023/01/15 10:17:19;;;;;;;0.57;0.50;;;;;;;9.83;93.84;95668.63;5070615;28;20437;-58
2023/01/15 10:19:47;;;;;;;1.10;1.07;;;;;;;9.94;92.72;95660.47;5074285;28;20425;-57
2023/01/15 10:22:28;;;;;;;3.13;1.33;;;;;;;10.41;89.00;95646.44;5074487;28;20511;-58
2023/01/15 10:24:58;;;;;;;0.40;0.30;;;;;;;10.32;85.55;95619.66;5074277;28;20422;-57
2023/01/15 10:27:32;;;;;;;1.10;0.40;;;;;;;10.63;84.92;95623.97;5074366;28;20421;-57
2023/01/15 10:30:08;;;;;;;1.47;0.50;;;;;;;10.76;83.12;95626.13;5074506;28;20922;-58
2023/01/15 10:32:46;;;;;;;0.47;0.47;;;;;;;10.21;85.78;95625.97;5073810;28;21014;-58
2023/01/15 10:35:37;;;;;;;0.83;0.83;;;;;;;9.48;94.60;95632.97;5073765;28;20527;-57
2023/01/15 10:38:14;;;;;;;1.37;0.60;;;;;;;10.23;90.46;95618.56;5073513;28;20425;-57
2023/01/15 10:41:18;;;;;;;0.53;0.53;;;;;;;10.20;88.41;95619.88;5073532;28;20419;-58
2023/01/15 10:43:51;;;;;;;0.50;0.43;;;;;;;9.61;91.92;95607.09;5071165;28;20438;-57
2023/01/15 10:46:25;;;;;;;4.53;1.00;;;;;;;9.90;96.14;95614.41;5074962;28;20416;-58
2023/01/15 10:48:57;;;;;;;2.70;2.60;;;;;;;9.00;98.82;95555.63;5073697;28;20941;-58
2023/01/15 10:51:30;;;;;;;5.93;2.07;;;;;;;9.24;100.00;95604.44;5073940;28;20841;-57
2023/01/15 10:54:03;;;;;;;4.30;2.43;;;;;;;9.75;96.01;95595.00;5073901;28;20422;-57
2023/01/15 10:56:35;;;;;;;1.33;1.20;;;;;;;9.75;97.36;95579.09;5074106;28;20472;-57
2023/01/15 10:59:15;;;;;;;1.10;1.10;;;;;;;9.55;97.32;95583.25;5074041;28;20443;-57
2023/01/15 11:01:47;;;;;;;4.53;3.43;;;;;;;9.32;95.99;95499.00;5073795;28;20433;-58
2023/01/15 11:04:16;;;;;;;1.50;1.17;;;;;;;10.04;96.28;95575.78;5073642;28;20918;-59
2023/01/15 11:06:44;;;;;;;2.40;1.07;;;;;;;11.03;89.34;95553.50;5073641;28;20423;-59
2023/01/15 11:09:20;;;;;;;2.20;2.00;;;;;;;11.66;83.75;95560.84;5073688;28;20498;-59
2023/01/15 11:20:25;;;;;;;2.77;2.67;;;;;;;11.74;79.54;95546.25;5073248;28;20431;-59
2023/01/15 11:22:55;;;;;;;5.40;3.47;;;;;;;12.55;75.31;95544.00;5073283;28;20456;-60
2023/01/15 11:25:29;;;;;;;4.57;2.13;;;;;;;12.77;71.21;95442.53;5073486;28;20799;-60
2023/01/15 11:27:59;;;;;;;2.87;2.40;;;;;;;14.07;68.30;95514.09;5073028;28;20436;-59
2023/01/15 11:30:30;;;;;;;3.07;2.40;;;;;;;13.84;67.49;95523.72;5072537;28;20810;-60
2023/01/15 11:33:03;;;;;;;3.70;1.80;;;;;;;13.34;69.00;95517.84;5072659;28;20453;-62
2023/01/15 11:35:33;;;;;;;1.80;1.70;;;;;;;12.04;71.55;95527.56;5072796;28;20882;-61
2023/01/15 11:38:06;;;;;;;3.10;2.63;;;;;;;12.30;73.08;95518.34;5072602;28;20440;-61
2023/01/15 11:40:35;;;;;;;2.03;1.93;;;;;;;12.94;69.61;95504.09;5072451;28;20986;-62
2023/01/15 11:51:43;;;;;;;3.17;3.07;;;;;;;12.31;72.15;95485.41;5073002;28;20452;-60
2023/01/15 11:54:15;;;;;;;1.10;1.10;;;;;;;11.90;72.36;95494.66;5072709;28;20487;-60
2023/01/15 11:56:45;;;;;;;2.73;2.60;;;;;;;11.40;74.42;95491.09;5072620;28;20482;-60
2023/01/15 11:59:18;;;;;;;4.30;4.00;;;;;;;10.77;73.45;95446.66;5072501;28;20422;-60
2023/01/15 12:01:58;;;;;;;1.47;1.43;;;;;;;11.79;72.25;95485.16;5072473;28;20918;-60
2023/01/15 12:04:45;;;;;;;2.13;2.03;;;;;;;11.87;72.01;95476.59;5072411;28;20486;-60
2023/01/15 12:07:17;;;;;;;1.37;1.27;;;;;;;12.13;71.21;95498.53;5072369;28;20419;-60
2023/01/15 12:10:05;;;;;;;1.73;1.57;;;;;;;11.71;70.99;95435.28;5072356;28;20984;-60
2023/01/15 12:12:49;;;;;;;2.33;2.23;;;;;;;11.81;71.06;95472.41;5072346;28;20504;-60
2023/01/15 12:15:33;;;;;;;3.73;1.70;;;;;;;12.02;71.57;95458.72;5072374;28;20523;-59
2023/01/15 12:18:37;;;;;;;2.30;2.20;;;;;;;12.03;70.54;95462.19;5072149;28;20505;-60
2023/01/15 12:21:28;;;;;;;2.77;2.67;;;;;;;12.10;70.10;95452.06;5071906;28;20446;-60
2023/01/15 12:24:26;;;;;;;2.73;1.47;;;;;;;12.31;69.45;95444.75;5072294;28;20462;-60
2023/01/15 12:27:06;;;;;;;0.73;0.73;;;;;;;12.08;70.50;95451.53;5072017;28;20438;-59
2023/01/15 12:29:40;;;;;;;0.60;0.60;;;;;;;11.89;72.19;95450.59;5071855;28;20472;-60
2023/01/15 12:32:11;;;;;;;0.60;0.60;;;;;;;12.34;71.54;95449.50;5072110;28;20449;-60
2023/01/15 12:34:49;;;;;;;0.63;0.47;;;;;;;12.70;69.88;95446.28;5071946;28;20497;-59
2023/01/15 12:37:23;;;;;;;0.83;0.83;;;;;;;11.69;71.74;95440.84;5072178;28;20503;-59
2023/01/15 12:39:57;;;;;;;2.80;2.70;;;;;;;11.76;71.74;95451.97;5071942;28;20980;-59